sensor_id;sensor_type;location;lat;lon;timestamp;P1;durP1;ratioP1;P2;durP2;ratioP2
1294;SDS011;640;48.310;11.728;2022-09-09T00:01:59;4.18;;;2.58;;
1294;SDS011;640;48.310;11.728;2022-09-09T00:04:32;4.10;;;2.53;;
1294;SDS011;640;48.310;11.728;2022-09-09T00:07:03;3.90;;;2.47;;
1294;SDS011;640;48.310;11.728;2022-09-09T00:09:35;5.90;;;2.80;;
1294;SDS011;640;48.310;11.728;2022-09-09T00:12:10;5.30;;;2.53;;
1294;SDS011;640;48.310;11.728;2022-09-09T00:14:41;5.15;;;2.40;;
1294;SDS011;640;48.310;11.728;2022-09-09T00:17:30;5.70;;;2.58;;
1294;SDS011;640;48.310;11.728;2022-09-09T00:20:02;9.00;;;2.85;;
1294;SDS011;640;48.310;11.728;2022-09-09T00:22:37;5.75;;;2.58;;
1294;SDS011;640;48.310;11.728;2022-09-09T00:25:10;4.70;;;2.40;;
1294;SDS011;640;48.310;11.728;2022-09-09T00:27:40;3.83;;;2.65;;
1294;SDS011;640;48.310;11.728;2022-09-09T00:30:15;9.32;;;2.88;;
1294;SDS011;640;48.310;11.728;2022-09-09T00:32:48;3.60;;;2.50;;
1294;SDS011;640;48.310;11.728;2022-09-09T00:35:18;4.13;;;2.50;;
1294;SDS011;640;48.310;11.728;2022-09-09T00:37:51;5.60;;;2.70;;
1294;SDS011;640;48.310;11.728;2022-09-09T00:40:25;5.20;;;2.30;;
1294;SDS011;640;48.310;11.728;2022-09-09T00:43:04;4.45;;;2.53;;
1294;SDS011;640;48.310;11.728;2022-09-09T00:45:52;3.88;;;2.70;;
1294;SDS011;640;48.310;11.728;2022-09-09T00:48:44;4.25;;;2.70;;
1294;SDS011;640;48.310;11.728;2022-09-09T00:51:19;8.88;;;2.45;;
1294;SDS011;640;48.310;11.728;2022-09-09T00:54:00;4.00;;;2.72;;
1294;SDS011;640;48.310;11.728;2022-09-09T00:56:37;8.40;;;2.65;;
1294;SDS011;640;48.310;11.728;2022-09-09T00:59:14;3.63;;;2.33;;
1294;SDS011;640;48.310;11.728;2022-09-09T01:01:54;4.50;;;2.67;;
1294;SDS011;640;48.310;11.728;2022-09-09T01:04:25;5.28;;;2.53;;
1294;SDS011;640;48.310;11.728;2022-09-09T01:06:59;5.57;;;3.00;;
1294;SDS011;640;48.310;11.728;2022-09-09T01:09:32;6.53;;;2.83;;
1294;SDS011;640;48.310;11.728;2022-09-09T01:12:07;10.65;;;3.10;;
1294;SDS011;640;48.310;11.728;2022-09-09T01:14:40;5.10;;;2.90;;
1294;SDS011;640;48.310;11.728;2022-09-09T01:17:13;5.97;;;3.05;;
1294;SDS011;640;48.310;11.728;2022-09-09T01:19:55;8.15;;;3.50;;
1294;SDS011;640;48.310;11.728;2022-09-09T01:22:33;9.52;;;3.92;;
1294;SDS011;640;48.310;11.728;2022-09-09T01:25:13;7.43;;;3.15;;
1294;SDS011;640;48.310;11.728;2022-09-09T01:27:50;4.35;;;3.10;;
1294;SDS011;640;48.310;11.728;2022-09-09T01:30:20;5.90;;;3.28;;
1294;SDS011;640;48.310;11.728;2022-09-09T01:32:50;6.45;;;3.15;;
1294;SDS011;640;48.310;11.728;2022-09-09T01:35:22;3.88;;;2.90;;
1294;SDS011;640;48.310;11.728;2022-09-09T01:37:57;5.22;;;3.22;;
1294;SDS011;640;48.310;11.728;2022-09-09T01:40:26;5.22;;;2.95;;
1294;SDS011;640;48.310;11.728;2022-09-09T01:42:55;5.60;;;2.80;;
1294;SDS011;640;48.310;11.728;2022-09-09T01:45:24;3.22;;;2.88;;
1294;SDS011;640;48.310;11.728;2022-09-09T01:47:52;6.15;;;3.15;;
1294;SDS011;640;48.310;11.728;2022-09-09T01:50:21;4.53;;;3.05;;
1294;SDS011;640;48.310;11.728;2022-09-09T01:52:50;4.95;;;3.08;;
1294;SDS011;640;48.310;11.728;2022-09-09T01:55:23;3.42;;;2.80;;
1294;SDS011;640;48.310;11.728;2022-09-09T01:58:01;4.55;;;2.90;;
1294;SDS011;640;48.310;11.728;2022-09-09T02:00:40;5.75;;;2.88;;
1294;SDS011;640;48.310;11.728;2022-09-09T02:03:13;5.22;;;2.70;;
1294;SDS011;640;48.310;11.728;2022-09-09T02:05:49;7.28;;;2.70;;
1294;SDS011;640;48.310;11.728;2022-09-09T02:08:23;5.30;;;2.88;;
1294;SDS011;640;48.310;11.728;2022-09-09T02:10:55;5.97;;;2.70;;
1294;SDS011;640;48.310;11.728;2022-09-09T02:13:26;9.05;;;2.70;;
1294;SDS011;640;48.310;11.728;2022-09-09T02:15:55;3.38;;;2.70;;
1294;SDS011;640;48.310;11.728;2022-09-09T02:18:27;3.85;;;2.58;;
1294;SDS011;640;48.310;11.728;2022-09-09T02:20:58;4.20;;;2.92;;
1294;SDS011;640;48.310;11.728;2022-09-09T02:23:27;5.80;;;2.80;;
1294;SDS011;640;48.310;11.728;2022-09-09T02:25:56;6.68;;;2.78;;
1294;SDS011;640;48.310;11.728;2022-09-09T02:28:27;3.08;;;2.75;;
1294;SDS011;640;48.310;11.728;2022-09-09T02:30:58;5.00;;;2.78;;
1294;SDS011;640;48.310;11.728;2022-09-09T02:33:28;5.65;;;2.80;;
1294;SDS011;640;48.310;11.728;2022-09-09T02:35:58;5.18;;;2.72;;
1294;SDS011;640;48.310;11.728;2022-09-09T02:38:31;4.65;;;2.63;;
1294;SDS011;640;48.310;11.728;2022-09-09T02:41:03;3.75;;;2.80;;
1294;SDS011;640;48.310;11.728;2022-09-09T02:43:33;2.80;;;2.38;;
1294;SDS011;640;48.310;11.728;2022-09-09T02:46:03;4.28;;;2.72;;
1294;SDS011;640;48.310;11.728;2022-09-09T02:48:37;3.03;;;2.60;;
1294;SDS011;640;48.310;11.728;2022-09-09T02:51:13;6.30;;;2.50;;
1294;SDS011;640;48.310;11.728;2022-09-09T02:53:46;3.97;;;2.63;;
1294;SDS011;640;48.310;11.728;2022-09-09T02:56:18;4.15;;;2.60;;
1294;SDS011;640;48.310;11.728;2022-09-09T02:58:50;6.32;;;2.63;;
1294;SDS011;640;48.310;11.728;2022-09-09T03:01:18;10.73;;;2.90;;
1294;SDS011;640;48.310;11.728;2022-09-09T03:03:47;4.68;;;2.78;;
1294;SDS011;640;48.310;11.728;2022-09-09T03:06:15;4.03;;;2.38;;
1294;SDS011;640;48.310;11.728;2022-09-09T03:08:43;4.63;;;2.63;;
1294;SDS011;640;48.310;11.728;2022-09-09T03:11:15;3.92;;;2.50;;
1294;SDS011;640;48.310;11.728;2022-09-09T03:13:43;3.63;;;2.53;;
1294;SDS011;640;48.310;11.728;2022-09-09T03:16:13;5.93;;;2.53;;
1294;SDS011;640;48.310;11.728;2022-09-09T03:18:41;6.10;;;2.58;;
1294;SDS011;640;48.310;11.728;2022-09-09T03:21:12;8.20;;;2.40;;
1294;SDS011;640;48.310;11.728;2022-09-09T03:23:41;6.93;;;2.95;;
1294;SDS011;640;48.310;11.728;2022-09-09T03:26:09;5.45;;;2.50;;
1294;SDS011;640;48.310;11.728;2022-09-09T03:28:37;3.78;;;2.47;;
1294;SDS011;640;48.310;11.728;2022-09-09T03:31:06;5.05;;;2.30;;
1294;SDS011;640;48.310;11.728;2022-09-09T03:33:38;6.18;;;2.47;;
1294;SDS011;640;48.310;11.728;2022-09-09T03:38:36;2.90;;;2.28;;
1294;SDS011;640;48.310;11.728;2022-09-09T03:41:04;3.53;;;2.33;;
1294;SDS011;640;48.310;11.728;2022-09-09T03:43:34;2.95;;;2.40;;
1294;SDS011;640;48.310;11.728;2022-09-09T03:46:04;5.75;;;2.50;;
1294;SDS011;640;48.310;11.728;2022-09-09T03:48:32;2.75;;;2.10;;
1294;SDS011;640;48.310;11.728;2022-09-09T03:51:02;3.40;;;2.25;;
1294;SDS011;640;48.310;11.728;2022-09-09T03:53:31;7.57;;;2.40;;
1294;SDS011;640;48.310;11.728;2022-09-09T03:56:01;6.55;;;2.40;;
1294;SDS011;640;48.310;11.728;2022-09-09T03:58:29;2.42;;;2.15;;
1294;SDS011;640;48.310;11.728;2022-09-09T04:00:58;3.83;;;2.00;;
1294;SDS011;640;48.310;11.728;2022-09-09T04:03:28;3.33;;;2.25;;
1294;SDS011;640;48.310;11.728;2022-09-09T04:05:58;4.15;;;2.42;;
1294;SDS011;640;48.310;11.728;2022-09-09T04:08:30;4.15;;;2.30;;
1294;SDS011;640;48.310;11.728;2022-09-09T04:10:59;8.15;;;2.72;;
1294;SDS011;640;48.310;11.728;2022-09-09T04:13:32;5.40;;;2.10;;
1294;SDS011;640;48.310;11.728;2022-09-09T04:16:02;4.13;;;2.20;;
1294;SDS011;640;48.310;11.728;2022-09-09T04:18:31;4.07;;;2.08;;
1294;SDS011;640;48.310;11.728;2022-09-09T04:21:01;3.33;;;2.05;;
1294;SDS011;640;48.310;11.728;2022-09-09T04:23:32;2.92;;;2.00;;
1294;SDS011;640;48.310;11.728;2022-09-09T04:26:02;4.75;;;2.33;;
1294;SDS011;640;48.310;11.728;2022-09-09T04:28:31;2.80;;;2.15;;
1294;SDS011;640;48.310;11.728;2022-09-09T04:31:03;5.68;;;2.10;;
1294;SDS011;640;48.310;11.728;2022-09-09T04:33:32;4.80;;;2.10;;
1294;SDS011;640;48.310;11.728;2022-09-09T04:36:06;2.50;;;2.30;;
1294;SDS011;640;48.310;11.728;2022-09-09T04:38:36;4.75;;;2.20;;
1294;SDS011;640;48.310;11.728;2022-09-09T04:41:04;5.30;;;2.33;;
1294;SDS011;640;48.310;11.728;2022-09-09T04:43:33;4.65;;;2.40;;
1294;SDS011;640;48.310;11.728;2022-09-09T04:46:01;5.60;;;2.65;;
1294;SDS011;640;48.310;11.728;2022-09-09T04:48:30;3.05;;;2.05;;
1294;SDS011;640;48.310;11.728;2022-09-09T04:50:59;4.88;;;2.35;;
1294;SDS011;640;48.310;11.728;2022-09-09T04:53:29;3.10;;;1.95;;
1294;SDS011;640;48.310;11.728;2022-09-09T04:56:05;4.20;;;2.20;;
1294;SDS011;640;48.310;11.728;2022-09-09T04:58:36;5.85;;;2.40;;
1294;SDS011;640;48.310;11.728;2022-09-09T05:01:06;6.85;;;2.20;;
1294;SDS011;640;48.310;11.728;2022-09-09T05:03:35;3.42;;;2.30;;
1294;SDS011;640;48.310;11.728;2022-09-09T05:06:05;5.57;;;2.45;;
1294;SDS011;640;48.310;11.728;2022-09-09T05:08:35;3.92;;;2.20;;
1294;SDS011;640;48.310;11.728;2022-09-09T05:11:13;3.42;;;2.20;;
1294;SDS011;640;48.310;11.728;2022-09-09T05:13:43;3.33;;;2.10;;
1294;SDS011;640;48.310;11.728;2022-09-09T05:16:13;6.68;;;2.10;;
1294;SDS011;640;48.310;11.728;2022-09-09T05:18:42;6.10;;;2.38;;
1294;SDS011;640;48.310;11.728;2022-09-09T05:21:13;2.50;;;1.92;;
1294;SDS011;640;48.310;11.728;2022-09-09T05:23:42;5.30;;;1.92;;
1294;SDS011;640;48.310;11.728;2022-09-09T05:26:11;3.22;;;1.92;;
1294;SDS011;640;48.310;11.728;2022-09-09T05:28:43;4.93;;;2.20;;
1294;SDS011;640;48.310;11.728;2022-09-09T05:31:12;5.03;;;2.10;;
1294;SDS011;640;48.310;11.728;2022-09-09T05:33:42;3.22;;;2.40;;
1294;SDS011;640;48.310;11.728;2022-09-09T05:36:13;2.90;;;2.00;;
1294;SDS011;640;48.310;11.728;2022-09-09T05:38:43;2.70;;;2.00;;
1294;SDS011;640;48.310;11.728;2022-09-09T05:41:13;3.60;;;2.17;;
1294;SDS011;640;48.310;11.728;2022-09-09T05:43:42;4.38;;;2.08;;
1294;SDS011;640;48.310;11.728;2022-09-09T05:46:13;3.03;;;2.28;;
1294;SDS011;640;48.310;11.728;2022-09-09T05:48:42;7.60;;;2.22;;
1294;SDS011;640;48.310;11.728;2022-09-09T05:51:14;4.45;;;2.10;;
1294;SDS011;640;48.310;11.728;2022-09-09T05:53:44;3.88;;;2.08;;
1294;SDS011;640;48.310;11.728;2022-09-09T05:56:15;2.72;;;1.98;;
1294;SDS011;640;48.310;11.728;2022-09-09T05:58:44;3.20;;;2.20;;
1294;SDS011;640;48.310;11.728;2022-09-09T06:01:14;4.40;;;2.20;;
1294;SDS011;640;48.310;11.728;2022-09-09T06:03:44;2.00;;;1.80;;
1294;SDS011;640;48.310;11.728;2022-09-09T06:06:14;3.08;;;1.90;;
1294;SDS011;640;48.310;11.728;2022-09-09T06:08:44;4.57;;;2.00;;
1294;SDS011;640;48.310;11.728;2022-09-09T06:11:13;4.60;;;2.10;;
1294;SDS011;640;48.310;11.728;2022-09-09T06:13:44;3.05;;;2.00;;
1294;SDS011;640;48.310;11.728;2022-09-09T06:16:13;4.03;;;2.00;;
1294;SDS011;640;48.310;11.728;2022-09-09T06:18:43;2.33;;;1.80;;
1294;SDS011;640;48.310;11.728;2022-09-09T06:21:14;2.55;;;1.90;;
1294;SDS011;640;48.310;11.728;2022-09-09T06:23:44;2.15;;;1.88;;
1294;SDS011;640;48.310;11.728;2022-09-09T06:26:13;2.63;;;2.00;;
1294;SDS011;640;48.310;11.728;2022-09-09T06:28:45;1.98;;;1.70;;
1294;SDS011;640;48.310;11.728;2022-09-09T06:31:15;2.53;;;1.67;;
1294;SDS011;640;48.310;11.728;2022-09-09T06:33:53;3.67;;;2.00;;
1294;SDS011;640;48.310;11.728;2022-09-09T06:36:22;3.05;;;1.88;;
1294;SDS011;640;48.310;11.728;2022-09-09T06:38:51;2.20;;;1.60;;
1294;SDS011;640;48.310;11.728;2022-09-09T06:41:20;3.05;;;2.08;;
1294;SDS011;640;48.310;11.728;2022-09-09T06:43:50;4.17;;;1.90;;
1294;SDS011;640;48.310;11.728;2022-09-09T06:46:19;4.63;;;1.93;;
1294;SDS011;640;48.310;11.728;2022-09-09T06:48:48;2.63;;;1.67;;
1294;SDS011;640;48.310;11.728;2022-09-09T06:51:18;2.70;;;1.73;;
1294;SDS011;640;48.310;11.728;2022-09-09T06:53:50;1.60;;;1.50;;
1294;SDS011;640;48.310;11.728;2022-09-09T06:56:21;5.88;;;1.73;;
1294;SDS011;640;48.310;11.728;2022-09-09T06:58:52;2.80;;;1.73;;
1294;SDS011;640;48.310;11.728;2022-09-09T07:01:21;5.63;;;1.92;;
1294;SDS011;640;48.310;11.728;2022-09-09T07:03:51;2.47;;;1.60;;
1294;SDS011;640;48.310;11.728;2022-09-09T07:06:22;3.90;;;1.50;;
1294;SDS011;640;48.310;11.728;2022-09-09T07:08:51;2.85;;;1.50;;
1294;SDS011;640;48.310;11.728;2022-09-09T07:11:23;2.95;;;1.77;;
1294;SDS011;640;48.310;11.728;2022-09-09T07:13:55;4.03;;;1.60;;
1294;SDS011;640;48.310;11.728;2022-09-09T07:16:24;2.00;;;1.80;;
1294;SDS011;640;48.310;11.728;2022-09-09T07:18:54;3.22;;;2.10;;
1294;SDS011;640;48.310;11.728;2022-09-09T07:21:25;9.27;;;2.20;;
1294;SDS011;640;48.310;11.728;2022-09-09T07:23:54;7.60;;;2.23;;
1294;SDS011;640;48.310;11.728;2022-09-09T07:26:23;7.30;;;3.20;;
1294;SDS011;640;48.310;11.728;2022-09-09T07:28:53;6.65;;;3.40;;
1294;SDS011;640;48.310;11.728;2022-09-09T07:31:24;3.97;;;2.85;;
1294;SDS011;640;48.310;11.728;2022-09-09T07:33:54;5.53;;;3.20;;
1294;SDS011;640;48.310;11.728;2022-09-09T07:36:23;5.05;;;3.25;;
1294;SDS011;640;48.310;11.728;2022-09-09T07:38:59;6.20;;;3.35;;
1294;SDS011;640;48.310;11.728;2022-09-09T07:41:30;8.60;;;3.45;;
1294;SDS011;640;48.310;11.728;2022-09-09T07:44:05;7.03;;;3.20;;
1294;SDS011;640;48.310;11.728;2022-09-09T07:46:34;6.55;;;3.10;;
1294;SDS011;640;48.310;11.728;2022-09-09T07:49:03;5.35;;;3.50;;
1294;SDS011;640;48.310;11.728;2022-09-09T07:51:32;4.68;;;3.30;;
1294;SDS011;640;48.310;11.728;2022-09-09T07:54:02;5.30;;;3.40;;
1294;SDS011;640;48.310;11.728;2022-09-09T07:59:00;5.15;;;2.42;;
1294;SDS011;640;48.310;11.728;2022-09-09T08:01:33;5.63;;;2.88;;
1294;SDS011;640;48.310;11.728;2022-09-09T08:04:06;4.68;;;2.70;;
1294;SDS011;640;48.310;11.728;2022-09-09T08:06:37;6.13;;;3.00;;
1294;SDS011;640;48.310;11.728;2022-09-09T08:09:06;3.88;;;2.60;;
1294;SDS011;640;48.310;11.728;2022-09-09T08:11:36;3.35;;;2.10;;
1294;SDS011;640;48.310;11.728;2022-09-09T08:14:05;7.45;;;2.70;;
1294;SDS011;640;48.310;11.728;2022-09-09T08:16:37;3.65;;;2.55;;
1294;SDS011;640;48.310;11.728;2022-09-09T08:19:07;2.90;;;2.22;;
1294;SDS011;640;48.310;11.728;2022-09-09T08:21:37;6.00;;;2.30;;
1294;SDS011;640;48.310;11.728;2022-09-09T08:24:07;4.60;;;2.20;;
1294;SDS011;640;48.310;11.728;2022-09-09T08:26:37;4.75;;;2.42;;
1294;SDS011;640;48.310;11.728;2022-09-09T08:29:09;7.40;;;2.20;;
1294;SDS011;640;48.310;11.728;2022-09-09T08:31:40;4.13;;;2.30;;
1294;SDS011;640;48.310;11.728;2022-09-09T08:34:10;2.38;;;1.88;;
1294;SDS011;640;48.310;11.728;2022-09-09T08:36:40;3.35;;;2.08;;
1294;SDS011;640;48.310;11.728;2022-09-09T08:41:40;4.50;;;2.10;;
1294;SDS011;640;48.310;11.728;2022-09-09T08:44:20;4.50;;;2.30;;
1294;SDS011;640;48.310;11.728;2022-09-09T08:46:54;5.35;;;2.22;;
1294;SDS011;640;48.310;11.728;2022-09-09T08:49:34;3.35;;;2.10;;
1294;SDS011;640;48.310;11.728;2022-09-09T08:52:10;3.78;;;1.95;;
1294;SDS011;640;48.310;11.728;2022-09-09T08:54:44;5.07;;;2.20;;
1294;SDS011;640;48.310;11.728;2022-09-09T08:57:20;5.03;;;2.17;;
1294;SDS011;640;48.310;11.728;2022-09-09T08:59:53;4.45;;;1.90;;
1294;SDS011;640;48.310;11.728;2022-09-09T09:02:25;3.92;;;2.00;;
1294;SDS011;640;48.310;11.728;2022-09-09T09:05:05;3.40;;;1.83;;
1294;SDS011;640;48.310;11.728;2022-09-09T09:07:44;3.60;;;1.90;;
1294;SDS011;640;48.310;11.728;2022-09-09T09:10:24;5.03;;;2.20;;
1294;SDS011;640;48.310;11.728;2022-09-09T09:13:11;3.35;;;2.13;;
1294;SDS011;640;48.310;11.728;2022-09-09T09:15:44;3.58;;;2.22;;
1294;SDS011;640;48.310;11.728;2022-09-09T09:18:18;4.53;;;2.35;;
1294;SDS011;640;48.310;11.728;2022-09-09T09:20:50;3.20;;;2.08;;
1294;SDS011;640;48.310;11.728;2022-09-09T09:23:24;4.72;;;2.45;;
1294;SDS011;640;48.310;11.728;2022-09-09T09:25:55;4.25;;;2.58;;
1294;SDS011;640;48.310;11.728;2022-09-09T09:28:27;3.38;;;2.33;;
1294;SDS011;640;48.310;11.728;2022-09-09T09:30:58;4.57;;;2.33;;
1294;SDS011;640;48.310;11.728;2022-09-09T09:33:31;4.28;;;2.03;;
1294;SDS011;640;48.310;11.728;2022-09-09T09:36:02;4.28;;;2.40;;
1294;SDS011;640;48.310;11.728;2022-09-09T09:38:34;3.65;;;2.20;;
1294;SDS011;640;48.310;11.728;2022-09-09T09:41:33;3.22;;;2.20;;
1294;SDS011;640;48.310;11.728;2022-09-09T09:44:03;3.80;;;2.40;;
1294;SDS011;640;48.310;11.728;2022-09-09T09:46:32;3.58;;;2.20;;
1294;SDS011;640;48.310;11.728;2022-09-09T09:49:02;4.60;;;2.35;;
1294;SDS011;640;48.310;11.728;2022-09-09T09:51:32;4.40;;;2.65;;
1294;SDS011;640;48.310;11.728;2022-09-09T09:54:16;4.40;;;2.33;;
1294;SDS011;640;48.310;11.728;2022-09-09T09:56:47;3.67;;;2.30;;
1294;SDS011;640;48.310;11.728;2022-09-09T09:59:22;3.75;;;2.15;;
1294;SDS011;640;48.310;11.728;2022-09-09T10:02:17;4.82;;;2.28;;
1294;SDS011;640;48.310;11.728;2022-09-09T10:04:48;5.03;;;2.60;;
1294;SDS011;640;48.310;11.728;2022-09-09T10:07:18;5.32;;;2.50;;
1294;SDS011;640;48.310;11.728;2022-09-09T10:09:48;2.53;;;2.30;;
1294;SDS011;640;48.310;11.728;2022-09-09T10:12:22;4.15;;;2.50;;
1294;SDS011;640;48.310;11.728;2022-09-09T10:15:01;4.00;;;2.45;;
1294;SDS011;640;48.310;11.728;2022-09-09T10:17:34;4.20;;;2.50;;
1294;SDS011;640;48.310;11.728;2022-09-09T10:20:21;4.30;;;2.22;;
1294;SDS011;640;48.310;11.728;2022-09-09T10:22:58;3.85;;;2.50;;
1294;SDS011;640;48.310;11.728;2022-09-09T10:25:36;2.58;;;2.17;;
1294;SDS011;640;48.310;11.728;2022-09-09T10:28:20;3.83;;;2.30;;
1294;SDS011;640;48.310;11.728;2022-09-09T10:31:00;5.30;;;2.30;;
1294;SDS011;640;48.310;11.728;2022-09-09T10:33:36;4.10;;;2.38;;
1294;SDS011;640;48.310;11.728;2022-09-09T10:36:12;5.88;;;2.22;;
1294;SDS011;640;48.310;11.728;2022-09-09T10:38:42;4.13;;;2.08;;
1294;SDS011;640;48.310;11.728;2022-09-09T10:41:16;3.03;;;1.80;;
1294;SDS011;640;48.310;11.728;2022-09-09T10:44:02;4.15;;;1.75;;
1294;SDS011;640;48.310;11.728;2022-09-09T10:46:50;3.65;;;2.10;;
1294;SDS011;640;48.310;11.728;2022-09-09T10:49:42;5.38;;;2.55;;
1294;SDS011;640;48.310;11.728;2022-09-09T10:52:23;3.10;;;2.20;;
1294;SDS011;640;48.310;11.728;2022-09-09T10:54:56;4.35;;;2.20;;
1294;SDS011;640;48.310;11.728;2022-09-09T10:57:28;2.72;;;1.95;;
1294;SDS011;640;48.310;11.728;2022-09-09T11:00:01;5.85;;;2.30;;
1294;SDS011;640;48.310;11.728;2022-09-09T11:02:32;3.20;;;1.75;;
1294;SDS011;640;48.310;11.728;2022-09-09T11:05:03;3.90;;;2.03;;
1294;SDS011;640;48.310;11.728;2022-09-09T11:07:36;2.95;;;1.70;;
1294;SDS011;640;48.310;11.728;2022-09-09T11:10:13;4.47;;;1.98;;
1294;SDS011;640;48.310;11.728;2022-09-09T11:12:46;3.65;;;1.83;;
1294;SDS011;640;48.310;11.728;2022-09-09T11:17:46;3.17;;;1.50;;
1294;SDS011;640;48.310;11.728;2022-09-09T11:20:16;2.40;;;1.40;;
1294;SDS011;640;48.310;11.728;2022-09-09T11:22:47;5.68;;;1.60;;
1294;SDS011;640;48.310;11.728;2022-09-09T11:25:17;3.85;;;1.45;;
1294;SDS011;640;48.310;11.728;2022-09-09T11:27:51;3.53;;;1.60;;
1294;SDS011;640;48.310;11.728;2022-09-09T11:30:32;2.72;;;1.40;;
1294;SDS011;640;48.310;11.728;2022-09-09T11:33:35;2.00;;;1.50;;
1294;SDS011;640;48.310;11.728;2022-09-09T11:36:21;1.90;;;1.23;;
1294;SDS011;640;48.310;11.728;2022-09-09T11:39:13;3.72;;;1.40;;
1294;SDS011;640;48.310;11.728;2022-09-09T11:42:05;2.22;;;1.10;;
1294;SDS011;640;48.310;11.728;2022-09-09T11:44:34;4.85;;;1.20;;
1294;SDS011;640;48.310;11.728;2022-09-09T11:47:03;2.33;;;1.10;;
1294;SDS011;640;48.310;11.728;2022-09-09T11:49:44;2.78;;;1.30;;
1294;SDS011;640;48.310;11.728;2022-09-09T11:52:18;2.67;;;1.10;;
1294;SDS011;640;48.310;11.728;2022-09-09T11:54:51;1.42;;;1.00;;
1294;SDS011;640;48.310;11.728;2022-09-09T11:57:24;2.15;;;1.25;;
1294;SDS011;640;48.310;11.728;2022-09-09T11:59:55;2.60;;;0.95;;
1294;SDS011;640;48.310;11.728;2022-09-09T12:02:23;2.83;;;1.10;;
1294;SDS011;640;48.310;11.728;2022-09-09T12:04:55;3.35;;;1.00;;
1294;SDS011;640;48.310;11.728;2022-09-09T12:07:26;2.35;;;1.10;;
1294;SDS011;640;48.310;11.728;2022-09-09T12:10:01;3.33;;;1.40;;
1294;SDS011;640;48.310;11.728;2022-09-09T12:12:33;1.70;;;1.00;;
1294;SDS011;640;48.310;11.728;2022-09-09T12:17:56;2.38;;;0.70;;
1294;SDS011;640;48.310;11.728;2022-09-09T12:20:33;1.23;;;0.90;;
1294;SDS011;640;48.310;11.728;2022-09-09T12:26:10;2.38;;;1.20;;
1294;SDS011;640;48.310;11.728;2022-09-09T12:28:52;1.10;;;0.70;;
1294;SDS011;640;48.310;11.728;2022-09-09T12:31:30;1.80;;;0.90;;
1294;SDS011;640;48.310;11.728;2022-09-09T12:34:09;2.00;;;0.80;;
1294;SDS011;640;48.310;11.728;2022-09-09T12:36:38;0.90;;;0.70;;
1294;SDS011;640;48.310;11.728;2022-09-09T12:39:14;1.63;;;0.77;;
1294;SDS011;640;48.310;11.728;2022-09-09T12:41:52;0.98;;;0.70;;
1294;SDS011;640;48.310;11.728;2022-09-09T12:44:24;1.92;;;0.77;;
1294;SDS011;640;48.310;11.728;2022-09-09T12:46:54;1.70;;;0.80;;
1294;SDS011;640;48.310;11.728;2022-09-09T12:49:27;0.98;;;0.65;;
1294;SDS011;640;48.310;11.728;2022-09-09T12:52:02;3.40;;;0.85;;
1294;SDS011;640;48.310;11.728;2022-09-09T12:54:33;1.00;;;0.60;;
1294;SDS011;640;48.310;11.728;2022-09-09T12:57:03;1.90;;;0.70;;
1294;SDS011;640;48.310;11.728;2022-09-09T12:59:35;2.10;;;0.73;;
1294;SDS011;640;48.310;11.728;2022-09-09T13:02:16;1.75;;;0.88;;
1294;SDS011;640;48.310;11.728;2022-09-09T13:04:46;1.88;;;0.80;;
1294;SDS011;640;48.310;11.728;2022-09-09T13:07:17;1.35;;;0.73;;
1294;SDS011;640;48.310;11.728;2022-09-09T13:09:46;2.15;;;0.80;;
1294;SDS011;640;48.310;11.728;2022-09-09T13:12:18;2.58;;;0.80;;
1294;SDS011;640;48.310;11.728;2022-09-09T13:14:47;1.95;;;0.82;;
1294;SDS011;640;48.310;11.728;2022-09-09T13:17:19;1.23;;;0.60;;
1294;SDS011;640;48.310;11.728;2022-09-09T13:19:49;1.90;;;0.70;;
1294;SDS011;640;48.310;11.728;2022-09-09T13:22:20;1.92;;;0.68;;
1294;SDS011;640;48.310;11.728;2022-09-09T13:24:58;1.15;;;0.60;;
1294;SDS011;640;48.310;11.728;2022-09-09T13:27:31;1.40;;;0.68;;
1294;SDS011;640;48.310;11.728;2022-09-09T13:30:01;1.98;;;0.75;;
1294;SDS011;640;48.310;11.728;2022-09-09T13:32:29;1.70;;;0.70;;
1294;SDS011;640;48.310;11.728;2022-09-09T13:34:59;1.33;;;0.88;;
1294;SDS011;640;48.310;11.728;2022-09-09T13:37:30;2.67;;;1.13;;
1294;SDS011;640;48.310;11.728;2022-09-09T13:40:02;2.80;;;0.90;;
1294;SDS011;640;48.310;11.728;2022-09-09T13:42:34;2.67;;;0.70;;
1294;SDS011;640;48.310;11.728;2022-09-09T13:45:14;1.30;;;0.77;;
1294;SDS011;640;48.310;11.728;2022-09-09T13:47:47;2.35;;;0.90;;
1294;SDS011;640;48.310;11.728;2022-09-09T13:50:19;1.13;;;0.70;;
1294;SDS011;640;48.310;11.728;2022-09-09T13:55:18;3.22;;;0.90;;
1294;SDS011;640;48.310;11.728;2022-09-09T14:00:21;3.15;;;1.00;;
1294;SDS011;640;48.310;11.728;2022-09-09T14:02:50;2.60;;;0.77;;
1294;SDS011;640;48.310;11.728;2022-09-09T14:05:19;1.33;;;0.90;;
1294;SDS011;640;48.310;11.728;2022-09-09T14:07:48;1.45;;;0.85;;
1294;SDS011;640;48.310;11.728;2022-09-09T14:10:19;1.35;;;0.60;;
1294;SDS011;640;48.310;11.728;2022-09-09T14:12:49;1.27;;;0.70;;
1294;SDS011;640;48.310;11.728;2022-09-09T14:15:18;1.02;;;0.60;;
1294;SDS011;640;48.310;11.728;2022-09-09T14:17:46;2.97;;;1.02;;
1294;SDS011;640;48.310;11.728;2022-09-09T14:20:15;2.15;;;0.70;;
1294;SDS011;640;48.310;11.728;2022-09-09T14:22:44;1.52;;;0.88;;
1294;SDS011;640;48.310;11.728;2022-09-09T14:25:12;1.40;;;0.70;;
1294;SDS011;640;48.310;11.728;2022-09-09T14:27:41;0.80;;;0.52;;
1294;SDS011;640;48.310;11.728;2022-09-09T14:30:10;1.23;;;0.77;;
1294;SDS011;640;48.310;11.728;2022-09-09T14:32:40;2.70;;;0.60;;
1294;SDS011;640;48.310;11.728;2022-09-09T14:35:08;1.08;;;0.70;;
1294;SDS011;640;48.310;11.728;2022-09-09T14:37:37;0.80;;;0.50;;
1294;SDS011;640;48.310;11.728;2022-09-09T14:40:06;1.58;;;0.70;;
1294;SDS011;640;48.310;11.728;2022-09-09T14:42:35;1.40;;;0.63;;
1294;SDS011;640;48.310;11.728;2022-09-09T14:45:04;3.05;;;0.80;;
1294;SDS011;640;48.310;11.728;2022-09-09T14:47:33;3.53;;;0.85;;
1294;SDS011;640;48.310;11.728;2022-09-09T14:50:03;3.60;;;0.90;;
1294;SDS011;640;48.310;11.728;2022-09-09T14:52:32;2.95;;;0.90;;
1294;SDS011;640;48.310;11.728;2022-09-09T14:55:00;1.00;;;0.80;;
1294;SDS011;640;48.310;11.728;2022-09-09T14:57:28;0.90;;;0.73;;
1294;SDS011;640;48.310;11.728;2022-09-09T14:59:57;2.72;;;0.90;;
1294;SDS011;640;48.310;11.728;2022-09-09T15:02:25;2.28;;;0.88;;
1294;SDS011;640;48.310;11.728;2022-09-09T15:04:53;1.35;;;0.80;;
1294;SDS011;640;48.310;11.728;2022-09-09T15:07:25;3.03;;;0.90;;
1294;SDS011;640;48.310;11.728;2022-09-09T15:09:55;2.65;;;0.95;;
1294;SDS011;640;48.310;11.728;2022-09-09T15:12:23;2.22;;;1.08;;
1294;SDS011;640;48.310;11.728;2022-09-09T15:14:52;2.55;;;0.93;;
1294;SDS011;640;48.310;11.728;2022-09-09T15:17:21;1.88;;;0.90;;
1294;SDS011;640;48.310;11.728;2022-09-09T15:19:53;2.15;;;1.00;;
1294;SDS011;640;48.310;11.728;2022-09-09T15:22:22;2.25;;;0.85;;
1294;SDS011;640;48.310;11.728;2022-09-09T15:24:52;2.25;;;1.17;;
1294;SDS011;640;48.310;11.728;2022-09-09T15:27:20;1.52;;;0.95;;
1294;SDS011;640;48.310;11.728;2022-09-09T15:29:49;3.65;;;1.10;;
1294;SDS011;640;48.310;11.728;2022-09-09T15:32:18;1.73;;;1.10;;
1294;SDS011;640;48.310;11.728;2022-09-09T15:34:46;0.98;;;0.80;;
1294;SDS011;640;48.310;11.728;2022-09-09T15:37:17;1.65;;;0.88;;
1294;SDS011;640;48.310;11.728;2022-09-09T15:39:45;2.90;;;1.00;;
1294;SDS011;640;48.310;11.728;2022-09-09T15:42:15;1.42;;;1.00;;
1294;SDS011;640;48.310;11.728;2022-09-09T15:44:44;4.88;;;1.20;;
1294;SDS011;640;48.310;11.728;2022-09-09T15:47:12;3.80;;;0.80;;
1294;SDS011;640;48.310;11.728;2022-09-09T15:49:41;2.53;;;0.97;;
1294;SDS011;640;48.310;11.728;2022-09-09T15:52:10;2.53;;;0.95;;
1294;SDS011;640;48.310;11.728;2022-09-09T15:54:38;4.80;;;1.00;;
1294;SDS011;640;48.310;11.728;2022-09-09T15:57:07;2.85;;;0.85;;
1294;SDS011;640;48.310;11.728;2022-09-09T15:59:39;1.77;;;0.70;;
1294;SDS011;640;48.310;11.728;2022-09-09T16:02:08;2.78;;;0.90;;
1294;SDS011;640;48.310;11.728;2022-09-09T16:04:37;2.08;;;0.90;;
1294;SDS011;640;48.310;11.728;2022-09-09T16:07:05;4.18;;;1.00;;